Time;durP1;ratioP1;P1;durP2;ratioP2;P2;SDS_P1;SDS_P2;PMS_P1;PMS_P2;Temp;Humidity;BMP_temperature;BMP_pressure;BME280_temperature;BME280_humidity;BME280_pressure;Samples;Min_cycle;Max_cycle;Signal;HPM_P1;HPM_P2
2023/07/30 00:00:51;;;;;;;9.20;4.73;;;;;;;;;;5047241;28;20439;-48
2023/07/30 00:03:17;;;;;;;6.13;4.50;;;;;;;;;;5052481;28;20413;-47
2023/07/30 00:05:43;;;;;;;9.17;5.53;;;;;;;;;;5052488;28;20389;-48
2023/07/30 00:08:08;;;;;;;5.07;3.97;;;;;;;;;;5047025;28;20388;-50
2023/07/30 00:10:36;;;;;;;7.53;4.60;;;;;;;;;;5060736;28;20491;-51
2023/07/30 00:13:02;;;;;;;4.23;3.80;;;;;;;;;;5051873;28;21018;-47
2023/07/30 00:15:28;;;;;;;10.10;4.70;;;;;;;;;;5046568;28;20520;-47
2023/07/30 00:17:54;;;;;;;7.87;4.30;;;;;;;;;;5052237;28;20748;-47
2023/07/30 00:20:20;;;;;;;11.00;4.37;;;;;;;;;;5052009;28;20430;-47
2023/07/30 00:22:46;;;;;;;5.73;4.00;;;;;;;;;;5049258;28;20412;-49
2023/07/30 00:25:12;;;;;;;12.63;3.97;;;;;;;;;;5052495;28;20391;-48
2023/07/30 00:27:38;;;;;;;5.57;4.00;;;;;;;;;;5052123;28;20902;-52
2023/07/30 00:30:04;;;;;;;3.97;3.57;;;;;;;;;;5051806;28;20507;-47
2023/07/30 00:32:30;;;;;;;7.50;3.50;;;;;;;;;;5051958;28;20453;-47
2023/07/30 00:34:56;;;;;;;10.17;4.17;;;;;;;;;;5046987;28;20411;-47
2023/07/30 00:37:22;;;;;;;5.57;3.80;;;;;;;;;;5048879;28;20462;-49
2023/07/30 00:39:48;;;;;;;6.57;4.00;;;;;;;;;;5051841;28;20390;-47
2023/07/30 00:42:14;;;;;;;213.30;59.17;;;;;;;;;;5051850;28;20411;-47
2023/07/30 00:44:40;;;;;;;216.43;60.67;;;;;;;;;;5051956;28;20443;-47
2023/07/30 00:47:06;;;;;;;218.80;59.27;;;;;;;;;;5051735;28;20908;-47
2023/07/30 00:49:32;;;;;;;220.27;62.17;;;;;;;;;;5051523;28;20579;-50
2023/07/30 00:51:58;;;;;;;217.48;60.08;;;;;;;;;;5050579;28;20413;-47
2023/07/30 00:54:25;;;;;;;216.17;59.07;;;;;;;;;;5051621;28;20177;-47
2023/07/30 00:56:52;;;;;;;216.57;63.58;;;;;;;;;;5051089;28;20405;-47
2023/07/30 00:59:18;;;;;;;218.73;64.65;;;;;;;;;;5051426;28;20260;-47
2023/07/30 01:01:46;;;;;;;216.13;59.28;;;;;;;;;;5051113;28;20177;-47
2023/07/30 01:04:12;;;;;;;218.10;59.65;;;;;;;;;;5050901;28;20209;-47
2023/07/30 01:06:38;;;;;;;213.80;59.47;;;;;;;;;;5050745;28;20211;-47
2023/07/30 01:09:04;;;;;;;212.83;58.07;;;;;;;;;;5051447;28;20231;-48
2023/07/30 01:11:30;;;;;;;213.80;58.67;;;;;;;;;;5047434;28;20422;-48
2023/07/30 01:13:56;;;;;;;214.97;60.40;;;;;;;;;;5048355;28;20461;-49
2023/07/30 01:16:22;;;;;;;211.82;57.75;;;;;;;;;;5048986;28;20765;-51
2023/07/30 01:18:49;;;;;;;215.13;61.35;;;;;;;;;;5045137;28;20172;-49
2023/07/30 01:21:14;;;;;;;212.80;60.72;;;;;;;;;;5050617;28;20197;-48
2023/07/30 01:23:40;;;;;;;214.20;59.17;;;;;;;;;;5051394;28;20545;-51
2023/07/30 01:26:12;;;;;;;211.83;58.07;;;;;;;;;;5051388;28;20860;-47
2023/07/30 01:28:43;;;;;;;211.65;58.13;;;;;;;;;;5051386;28;20406;-46
2023/07/30 01:31:11;;;;;;;212.60;58.90;;;;;;;;;;5051018;28;20678;-47
2023/07/30 01:33:38;;;;;;;213.35;58.47;;;;;;;;;;5050720;28;20562;-47
2023/07/30 01:36:04;;;;;;;216.15;59.45;;;;;;;;;;5051238;28;20176;-50
2023/07/30 01:38:30;;;;;;;211.88;58.88;;;;;;;;;;5051283;28;20254;-49
2023/07/30 01:40:56;;;;;;;211.85;57.78;;;;;;;;;;5050956;28;20195;-49
2023/07/30 01:43:22;;;;;;;213.48;59.00;;;;;;;;;;5051091;28;20268;-51
2023/07/30 01:45:48;;;;;;;209.87;57.17;;;;;;;;;;5051029;28;20663;-47
2023/07/30 01:48:14;;;;;;;211.10;57.07;;;;;;;;;;5050855;28;20918;-47
2023/07/30 01:50:40;;;;;;;212.18;57.03;;;;;;;;;;5050811;28;20549;-48
2023/07/30 01:53:06;;;;;;;211.73;59.17;;;;;;;;;;5050896;28;20216;-47
2023/07/30 01:55:32;;;;;;;212.00;57.80;;;;;;;;;;5051029;28;20174;-47
2023/07/30 01:57:58;;;;;;;211.47;57.90;;;;;;;;;;5051000;28;20405;-47
2023/07/30 02:00:24;;;;;;;212.17;57.60;;;;;;;;;;5050836;28;20477;-47
2023/07/30 02:02:50;;;;;;;210.10;57.57;;;;;;;;;;5050878;28;20497;-50
2023/07/30 02:05:16;;;;;;;213.30;62.00;;;;;;;;;;5050884;28;20419;-50
2023/07/30 02:07:42;;;;;;;214.97;57.67;;;;;;;;;;5050915;28;20453;-46
2023/07/30 02:10:08;;;;;;;212.83;58.80;;;;;;;;;;5049544;28;20443;-46
2023/07/30 02:12:34;;;;;;;216.93;64.75;;;;;;;;;;5053827;28;20456;-46
2023/07/30 02:15:00;;;;;;;211.20;55.80;;;;;;;;;;5055378;28;20173;-48
2023/07/30 02:17:26;;;;;;;212.77;56.90;;;;;;;;;;5054689;28;20404;-47
2023/07/30 02:19:52;;;;;;;215.77;60.30;;;;;;;;;;5053953;28;20436;-47
2023/07/30 02:22:18;;;;;;;211.23;56.47;;;;;;;;;;5052247;28;20420;-49
2023/07/30 02:24:44;;;;;;;211.17;56.43;;;;;;;;;;5054565;28;20438;-50
2023/07/30 02:27:10;;;;;;;211.40;56.00;;;;;;;;;;5054443;28;20417;-48
2023/07/30 02:29:35;;;;;;;209.17;55.63;;;;;;;;;;5054231;28;20919;-48
2023/07/30 02:32:01;;;;;;;209.10;55.00;;;;;;;;;;5054134;28;20447;-48
2023/07/30 02:34:27;;;;;;;209.03;56.10;;;;;;;;;;5053790;28;20418;-48
2023/07/30 02:36:53;;;;;;;210.07;56.47;;;;;;;;;;5054249;28;20418;-48
2023/07/30 02:39:20;;;;;;;211.97;58.37;;;;;;;;;;5053999;28;20463;-50
2023/07/30 02:41:46;;;;;;;213.23;56.72;;;;;;;;;;5054051;28;20415;-48
2023/07/30 02:44:12;;;;;;;208.60;54.87;;;;;;;;;;5053985;28;20200;-47
2023/07/30 02:46:38;;;;;;;209.17;56.10;;;;;;;;;;5053685;28;20508;-49
2023/07/30 02:49:04;;;;;;;211.53;55.40;;;;;;;;;;5054066;28;20404;-47
2023/07/30 02:51:30;;;;;;;210.17;56.20;;;;;;;;;;5053731;28;20912;-48
2023/07/30 02:53:59;;;;;;;208.07;55.67;;;;;;;;;;5053799;28;20469;-47
2023/07/30 02:56:25;;;;;;;211.02;56.53;;;;;;;;;;5048519;28;20424;-49
2023/07/30 02:58:51;;;;;;;210.10;55.97;;;;;;;;;;5053776;28;20186;-48
2023/07/30 03:01:17;;;;;;;210.20;56.33;;;;;;;;;;5053131;28;20433;-50
2023/07/30 03:03:43;;;;;;;211.93;56.10;;;;;;;;;;5053738;28;20916;-47
2023/07/30 03:06:09;;;;;;;210.93;56.27;;;;;;;;;;5053709;28;20323;-47
2023/07/30 03:08:36;;;;;;;211.98;55.63;;;;;;;;;;5053520;28;20403;-48
2023/07/30 03:11:02;;;;;;;211.35;55.70;;;;;;;;;;5048382;28;20257;-47
2023/07/30 03:13:28;;;;;;;211.80;56.13;;;;;;;;;;5053339;28;20204;-47
2023/07/30 03:15:54;;;;;;;210.37;55.90;;;;;;;;;;5053361;28;20264;-48
2023/07/30 03:18:20;;;;;;;213.00;56.10;;;;;;;;;;5053459;28;20405;-47
2023/07/30 03:20:46;;;;;;;211.43;56.10;;;;;;;;;;5052599;28;20432;-48
2023/07/30 03:23:11;;;;;;;209.27;55.50;;;;;;;;;;5053239;28;20414;-50
2023/07/30 03:25:37;;;;;;;210.77;56.17;;;;;;;;;;5053221;28;20413;-48
2023/07/30 03:28:04;;;;;;;210.17;55.90;;;;;;;;;;5053318;28;20398;-49
2023/07/30 03:30:30;;;;;;;209.93;55.45;;;;;;;;;;5052622;28;20449;-48
2023/07/30 03:32:56;;;;;;;209.50;55.83;;;;;;;;;;5053288;28;20222;-49
2023/07/30 03:35:22;;;;;;;208.13;55.00;;;;;;;;;;5053087;28;20550;-48
2023/07/30 03:37:48;;;;;;;212.00;57.17;;;;;;;;;;5053065;28;20407;-48
2023/07/30 03:40:14;;;;;;;210.13;54.87;;;;;;;;;;5053008;28;20196;-49
2023/07/30 03:42:40;;;;;;;212.80;55.57;;;;;;;;;;5052826;28;20420;-47
2023/07/30 03:45:06;;;;;;;211.40;55.70;;;;;;;;;;5052985;28;20410;-47
2023/07/30 03:47:32;;;;;;;212.13;56.15;;;;;;;;;;5052873;28;20449;-47
2023/07/30 03:49:58;;;;;;;211.67;56.40;;;;;;;;;;5052627;28;20296;-48
2023/07/30 03:52:24;;;;;;;212.60;56.67;;;;;;;;;;5052641;28;20463;-49
2023/07/30 03:54:50;;;;;;;210.37;55.50;;;;;;;;;;5046092;28;20409;-51
2023/07/30 03:57:16;;;;;;;211.10;55.20;;;;;;;;;;5052621;28;20442;-47
2023/07/30 03:59:41;;;;;;;211.37;56.40;;;;;;;;;;5052447;28;20930;-48
2023/07/30 04:02:07;;;;;;;210.27;55.37;;;;;;;;;;5052692;28;20766;-48
2023/07/30 04:04:33;;;;;;;211.77;55.80;;;;;;;;;;5052564;28;20406;-48
2023/07/30 04:06:59;;;;;;;210.63;54.93;;;;;;;;;;5052520;28;20218;-48
2023/07/30 04:09:25;;;;;;;212.17;56.87;;;;;;;;;;5052431;28;20855;-53
2023/07/30 04:11:52;;;;;;;207.60;55.10;;;;;;;;;;5052148;28;20745;-51
2023/07/30 04:14:18;;;;;;;209.23;56.30;;;;;;;;;;5052280;28;20432;-52
2023/07/30 04:16:46;;;;;;;209.77;55.60;;;;;;;;;;5052429;28;20206;-50
2023/07/30 04:19:12;;;;;;;210.07;56.05;;;;;;;;;;5052345;28;20492;-51
2023/07/30 04:21:38;;;;;;;211.17;56.50;;;;;;;;;;5052014;28;20248;-51
2023/07/30 04:24:04;;;;;;;212.10;55.80;;;;;;;;;;5052142;28;20405;-52
2023/07/30 04:26:30;;;;;;;210.20;56.25;;;;;;;;;;5052075;28;20418;-50
2023/07/30 04:28:56;;;;;;;209.40;55.07;;;;;;;;;;5050476;28;20238;-52
2023/07/30 04:31:22;;;;;;;212.47;56.30;;;;;;;;;;5051556;28;20560;-52
2023/07/30 04:33:48;;;;;;;211.33;56.17;;;;;;;;;;5051331;28;20467;-52
2023/07/30 04:36:14;;;;;;;213.07;56.30;;;;;;;;;;5051889;28;20406;-50
2023/07/30 04:38:40;;;;;;;210.27;55.57;;;;;;;;;;5051982;28;20402;-52
2023/07/30 04:41:06;;;;;;;208.97;54.73;;;;;;;;;;5051011;28;20422;-51
2023/07/30 04:43:33;;;;;;;212.10;56.08;;;;;;;;;;5051017;28;20411;-52
2023/07/30 04:45:58;;;;;;;210.60;55.80;;;;;;;;;;5051875;28;20582;-51
2023/07/30 04:48:24;;;;;;;213.20;56.37;;;;;;;;;;5051876;28;20681;-51
2023/07/30 04:50:50;;;;;;;213.07;55.67;;;;;;;;;;5051259;28;20806;-49
2023/07/30 04:53:18;;;;;;;212.47;56.17;;;;;;;;;;5051663;28;20642;-53
2023/07/30 04:55:44;;;;;;;212.82;55.33;;;;;;;;;;5051978;28;20412;-52
2023/07/30 04:58:10;;;;;;;214.48;58.40;;;;;;;;;;5051774;28;20632;-52
2023/07/30 05:00:36;;;;;;;211.88;55.20;;;;;;;;;;5051487;28;20188;-53
2023/07/30 05:03:02;;;;;;;213.07;56.57;;;;;;;;;;5051683;28;20596;-51
2023/07/30 05:05:28;;;;;;;215.05;57.25;;;;;;;;;;5051324;28;20827;-51
2023/07/30 05:07:54;;;;;;;211.33;55.80;;;;;;;;;;5051707;28;20173;-53
2023/07/30 05:10:19;;;;;;;212.93;57.40;;;;;;;;;;5049770;28;21012;-52
2023/07/30 05:12:45;;;;;;;213.57;56.77;;;;;;;;;;5051469;28;20992;-52
2023/07/30 05:15:11;;;;;;;213.23;56.50;;;;;;;;;;5051479;28;20409;-52
2023/07/30 05:17:37;;;;;;;213.07;56.83;;;;;;;;;;5051455;28;20177;-53
2023/07/30 05:20:04;;;;;;;210.67;56.57;;;;;;;;;;5051127;28;20468;-52
2023/07/30 05:22:30;;;;;;;211.85;57.22;;;;;;;;;;5051259;28;20458;-52
2023/07/30 05:24:56;;;;;;;213.07;58.80;;;;;;;;;;5049906;28;20259;-51
2023/07/30 05:27:22;;;;;;;212.80;56.90;;;;;;;;;;5051642;28;20973;-53
2023/07/30 05:29:48;;;;;;;219.43;63.13;;;;;;;;;;5051178;28;20294;-53
2023/07/30 05:32:14;;;;;;;212.30;56.50;;;;;;;;;;5051206;28;20456;-50
2023/07/30 05:34:40;;;;;;;213.03;56.57;;;;;;;;;;5047835;28;20192;-53
2023/07/30 05:37:06;;;;;;;213.23;56.87;;;;;;;;;;5046621;28;20406;-53
2023/07/30 05:39:32;;;;;;;215.63;58.37;;;;;;;;;;5050266;28;20510;-53
2023/07/30 05:41:58;;;;;;;215.00;58.20;;;;;;;;;;5051297;28;20411;-48
2023/07/30 05:44:24;;;;;;;213.27;55.97;;;;;;;;;;5053600;28;20405;-48
2023/07/30 05:46:50;;;;;;;214.17;57.93;;;;;;;;;;5054867;28;20571;-50
2023/07/30 05:49:16;;;;;;;213.90;57.57;;;;;;;;;;5054253;28;20894;-52
2023/07/30 05:51:42;;;;;;;218.23;61.80;;;;;;;;;;5052605;28;20402;-52
2023/07/30 05:54:08;;;;;;;215.17;57.77;;;;;;;;;;5052193;28;20564;-47
2023/07/30 05:56:33;;;;;;;216.87;59.13;;;;;;;;;;5054031;28;20407;-47
2023/07/30 05:58:59;;;;;;;217.33;59.53;;;;;;;;;;5054046;28;20419;-47
2023/07/30 06:01:25;;;;;;;218.53;60.83;;;;;;;;;;5043678;28;20436;-52
2023/07/30 06:03:51;;;;;;;214.87;58.77;;;;;;;;;;5053085;28;20414;-48
2023/07/30 06:06:19;;;;;;;219.03;60.20;;;;;;;;;;5054129;28;20421;-50
2023/07/30 06:08:45;;;;;;;216.93;60.42;;;;;;;;;;5051796;28;20409;-51
2023/07/30 06:11:11;;;;;;;215.83;58.40;;;;;;;;;;5054701;28;20202;-48
2023/07/30 06:13:37;;;;;;;218.17;58.80;;;;;;;;;;5054583;28;20494;-48
2023/07/30 06:16:03;;;;;;;216.23;59.10;;;;;;;;;;5054773;28;20693;-50
2023/07/30 06:18:29;;;;;;;217.38;59.05;;;;;;;;;;5054502;28;20200;-50
2023/07/30 06:20:55;;;;;;;216.63;58.07;;;;;;;;;;5054225;28;20224;-48
2023/07/30 06:23:21;;;;;;;216.77;58.63;;;;;;;;;;5054444;28;20417;-48
2023/07/30 06:25:47;;;;;;;215.43;57.10;;;;;;;;;;5054372;28;20423;-49
2023/07/30 06:28:13;;;;;;;215.67;57.60;;;;;;;;;;5049845;28;20473;-51
2023/07/30 06:30:39;;;;;;;215.67;58.00;;;;;;;;;;5050977;28;20435;-50
2023/07/30 06:33:05;;;;;;;215.70;57.40;;;;;;;;;;5049603;28;20888;-52
2023/07/30 06:35:31;;;;;;;216.03;58.10;;;;;;;;;;5053233;28;20729;-48
2023/07/30 06:37:57;;;;;;;218.93;61.47;;;;;;;;;;5054272;28;20428;-48
2023/07/30 06:40:23;;;;;;;215.57;57.33;;;;;;;;;;5053750;28;20431;-48
2023/07/30 06:42:49;;;;;;;215.37;57.37;;;;;;;;;;5054478;28;20505;-48
2023/07/30 06:45:15;;;;;;;216.27;59.27;;;;;;;;;;5046696;28;20424;-48
2023/07/30 06:47:41;;;;;;;218.77;57.80;;;;;;;;;;5053511;28;20936;-49
2023/07/30 06:50:10;;;;;;;217.43;58.97;;;;;;;;;;5053498;28;20530;-50
2023/07/30 06:52:36;;;;;;;218.25;59.97;;;;;;;;;;5052288;28;20743;-48
2023/07/30 06:55:03;;;;;;;216.20;57.88;;;;;;;;;;5051802;28;20207;-51
2023/07/30 06:57:30;;;;;;;216.65;57.65;;;;;;;;;;5053851;28;20588;-50
2023/07/30 06:59:57;;;;;;;219.32;60.80;;;;;;;;;;5053007;28;20192;-49
2023/07/30 07:02:23;;;;;;;214.32;56.22;;;;;;;;;;5052929;28;20211;-48
2023/07/30 07:04:50;;;;;;;215.10;57.20;;;;;;;;;;5051853;28;20180;-48
2023/07/30 07:07:16;;;;;;;217.25;58.30;;;;;;;;;;5053744;28;20415;-48
2023/07/30 07:09:41;;;;;;;218.65;60.47;;;;;;;;;;5053397;28;20289;-48
2023/07/30 07:12:08;;;;;;;216.47;58.17;;;;;;;;;;5053595;28;20267;-48
2023/07/30 07:14:34;;;;;;;216.40;58.35;;;;;;;;;;5046430;28;20405;-48
2023/07/30 07:17:00;;;;;;;212.67;56.10;;;;;;;;;;5053278;28;20668;-48
2023/07/30 07:19:25;;;;;;;214.57;57.87;;;;;;;;;;5053588;28;20436;-48
2023/07/30 07:21:51;;;;;;;217.17;58.50;;;;;;;;;;5053188;28;20411;-50
2023/07/30 07:24:17;;;;;;;213.97;56.77;;;;;;;;;;5053316;28;20419;-50
2023/07/30 07:26:44;;;;;;;214.80;56.37;;;;;;;;;;5053607;28;20399;-48
2023/07/30 07:29:10;;;;;;;215.85;58.08;;;;;;;;;;5053237;28;20864;-48
2023/07/30 07:31:36;;;;;;;215.60;58.05;;;;;;;;;;5052805;28;20258;-49
2023/07/30 07:34:02;;;;;;;213.97;56.00;;;;;;;;;;5053147;28;20281;-49
2023/07/30 07:36:28;;;;;;;211.17;55.50;;;;;;;;;;5066516;28;20405;-48
2023/07/30 07:38:54;;;;;;;213.80;56.77;;;;;;;;;;5063951;28;20772;-47
2023/07/30 07:41:20;;;;;;;214.47;56.47;;;;;;;;;;5057803;28;20882;-47
2023/07/30 07:43:49;;;;;;;217.35;59.10;;;;;;;;;;5071928;28;20893;-48
2023/07/30 07:46:15;;;;;;;216.27;57.08;;;;;;;;;;5053279;28;20533;-48
2023/07/30 07:48:41;;;;;;;215.73;57.55;;;;;;;;;;5070280;28;20254;-48
2023/07/30 07:51:08;;;;;;;216.10;57.55;;;;;;;;;;5057124;28;20292;-48
2023/07/30 07:53:34;;;;;;;217.27;58.08;;;;;;;;;;5052075;28;20212;-49
2023/07/30 07:56:00;;;;;;;216.30;58.25;;;;;;;;;;5052812;28;20233;-48
2023/07/30 07:58:26;;;;;;;215.13;57.13;;;;;;;;;;5051365;28;20177;-48
2023/07/30 08:00:55;;;;;;;218.75;58.95;;;;;;;;;;5048714;28;20415;-47
2023/07/30 08:03:21;;;;;;;215.90;56.70;;;;;;;;;;5052535;28;20178;-50
2023/07/30 08:05:47;;;;;;;215.75;57.30;;;;;;;;;;5052605;28;20546;-50
2023/07/30 08:08:13;;;;;;;215.60;56.03;;;;;;;;;;5052285;28;20183;-47
2023/07/30 08:10:39;;;;;;;214.67;57.27;;;;;;;;;;5046020;28;20973;-47
2023/07/30 08:13:05;;;;;;;217.00;57.47;;;;;;;;;;5052417;28;20781;-48
2023/07/30 08:15:33;;;;;;;215.47;57.53;;;;;;;;;;5051619;28;20266;-51
2023/07/30 08:17:59;;;;;;;215.45;57.92;;;;;;;;;;5052409;28;20394;-52
2023/07/30 08:20:25;;;;;;;217.77;58.67;;;;;;;;;;5052155;28;20536;-52
2023/07/30 08:22:51;;;;;;;217.97;59.03;;;;;;;;;;5052132;28;20919;-51
2023/07/30 08:25:17;;;;;;;219.37;59.10;;;;;;;;;;5052191;28;20773;-50
2023/07/30 08:27:42;;;;;;;215.93;58.03;;;;;;;;;;5052247;28;20841;-51
2023/07/30 08:30:09;;;;;;;215.57;58.03;;;;;;;;;;5050668;28;20435;-51
2023/07/30 08:32:35;;;;;;;218.65;58.75;;;;;;;;;;5052105;28;20535;-51
2023/07/30 08:35:01;;;;;;;214.77;57.67;;;;;;;;;;5052200;28;20651;-52
2023/07/30 08:37:26;;;;;;;214.00;56.80;;;;;;;;;;5051934;28;20818;-52
2023/07/30 08:39:53;;;;;;;216.57;59.67;;;;;;;;;;5051697;28;20478;-51
2023/07/30 08:42:19;;;;;;;215.70;57.67;;;;;;;;;;5051974;28;20418;-51
2023/07/30 08:44:45;;;;;;;214.67;58.57;;;;;;;;;;5050749;28;20264;-50
2023/07/30 08:47:11;;;;;;;212.87;57.07;;;;;;;;;;5049030;28;20409;-50
2023/07/30 08:49:37;;;;;;;214.25;57.65;;;;;;;;;;5047107;28;20487;-48
2023/07/30 08:52:04;;;;;;;212.33;57.50;;;;;;;;;;5051300;28;20179;-49
2023/07/30 08:54:31;;;;;;;213.65;57.60;;;;;;;;;;5051683;28;20413;-52
2023/07/30 08:56:58;;;;;;;214.10;56.70;;;;;;;;;;5051883;28;20298;-50
2023/07/30 08:59:25;;;;;;;214.90;57.90;;;;;;;;;;5050417;28;20197;-51
2023/07/30 09:01:52;;;;;;;216.15;59.63;;;;;;;;;;5050130;28;20210;-50
2023/07/30 09:04:18;;;;;;;214.05;57.55;;;;;;;;;;5051561;28;20412;-52
2023/07/30 09:06:48;;;;;;;213.23;57.38;;;;;;;;;;5051650;28;20181;-49
2023/07/30 09:09:14;;;;;;;215.38;58.42;;;;;;;;;;5051550;28;20553;-50
2023/07/30 09:11:40;;;;;;;213.68;58.00;;;;;;;;;;5051375;28;20518;-52
2023/07/30 09:14:07;;;;;;;213.37;58.20;;;;;;;;;;5051560;28;20283;-52
2023/07/30 09:16:33;;;;;;;212.50;57.75;;;;;;;;;;5051353;28;20398;-52
2023/07/30 09:18:59;;;;;;;213.50;58.67;;;;;;;;;;5046518;28;20654;-49
2023/07/30 09:21:32;;;;;;;211.90;57.17;;;;;;;;;;5051219;28;20414;-51
2023/07/30 09:24:05;;;;;;;214.85;59.08;;;;;;;;;;5051362;28;20441;-51
2023/07/30 09:26:31;;;;;;;214.20;59.60;;;;;;;;;;5050388;28;20183;-51
2023/07/30 09:28:57;;;;;;;214.20;59.45;;;;;;;;;;5051400;28;20181;-51
2023/07/30 09:31:23;;;;;;;212.77;59.07;;;;;;;;;;5051103;28;20208;-52
2023/07/30 09:33:49;;;;;;;210.70;57.50;;;;;;;;;;5051348;28;20456;-51
2023/07/30 09:36:16;;;;;;;211.67;59.33;;;;;;;;;;5051351;28;20877;-51
2023/07/30 09:38:44;;;;;;;212.05;59.50;;;;;;;;;;5051475;28;20503;-51
2023/07/30 09:41:12;;;;;;;212.05;59.47;;;;;;;;;;5050101;28;20673;-52
2023/07/30 09:43:37;;;;;;;210.13;59.47;;;;;;;;;;5051069;28;20177;-50
2023/07/30 09:46:05;;;;;;;212.70;59.60;;;;;;;;;;5046946;28;20193;-49
2023/07/30 09:48:35;;;;;;;211.63;59.85;;;;;;;;;;5045382;28;20421;-51
2023/07/30 09:51:05;;;;;;;212.45;59.92;;;;;;;;;;5050870;28;20347;-52
2023/07/30 09:53:35;;;;;;;210.77;60.33;;;;;;;;;;5049663;28;20209;-52
2023/07/30 09:56:02;;;;;;;210.70;60.50;;;;;;;;;;5051152;28;20777;-51
2023/07/30 09:58:28;;;;;;;208.60;60.63;;;;;;;;;;5051257;28;20464;-52
2023/07/30 10:00:55;;;;;;;208.47;60.63;;;;;;;;;;5051042;28;20436;-51
2023/07/30 10:03:21;;;;;;;207.87;61.37;;;;;;;;;;5041996;28;20443;-49
2023/07/30 10:05:47;;;;;;;207.43;59.97;;;;;;;;;;5050964;28;20677;-52
2023/07/30 10:08:16;;;;;;;209.03;62.47;;;;;;;;;;5049833;28;20413;-49
2023/07/30 10:10:43;;;;;;;209.50;62.77;;;;;;;;;;5051007;28;20933;-52
2023/07/30 10:13:10;;;;;;;206.57;62.13;;;;;;;;;;5051069;28;20483;-51
2023/07/30 10:15:38;;;;;;;208.17;62.17;;;;;;;;;;5050852;28;20404;-50
2023/07/30 10:18:04;;;;;;;208.07;63.03;;;;;;;;;;5050999;28;20397;-52
2023/07/30 10:20:31;;;;;;;207.93;63.30;;;;;;;;;;5050612;28;20433;-52
2023/07/30 10:22:58;;;;;;;207.67;63.33;;;;;;;;;;5049854;28;20412;-49
2023/07/30 10:25:31;;;;;;;209.67;65.83;;;;;;;;;;5050908;28;20516;-51
2023/07/30 10:27:58;;;;;;;208.60;63.73;;;;;;;;;;5051032;28;20413;-51
2023/07/30 10:30:30;;;;;;;207.17;63.37;;;;;;;;;;5051143;28;20437;-52
2023/07/30 10:32:57;;;;;;;207.33;63.30;;;;;;;;;;5054391;28;20467;-50
2023/07/30 10:35:41;;;;;;;209.17;65.33;;;;;;;;;;5053285;28;20406;-51
2023/07/30 10:38:16;;;;;;;206.20;62.40;;;;;;;;;;5054318;28;20412;-51
2023/07/30 10:40:43;;;;;;;207.73;63.67;;;;;;;;;;5046362;28;20884;-50
2023/07/30 10:43:18;;;;;;;206.23;62.75;;;;;;;;;;5050570;28;20803;-51
2023/07/30 10:45:50;;;;;;;207.73;63.83;;;;;;;;;;5052249;28;20552;-51
2023/07/30 10:48:16;;;;;;;206.80;63.73;;;;;;;;;;5046829;28;20409;-51
2023/07/30 10:50:43;;;;;;;207.60;64.57;;;;;;;;;;5052915;28;20506;-51
2023/07/30 10:53:09;;;;;;;207.37;64.70;;;;;;;;;;5054064;28;20497;-52
2023/07/30 10:55:35;;;;;;;206.13;64.07;;;;;;;;;;5053913;28;20886;-50
2023/07/30 10:58:02;;;;;;;208.37;65.53;;;;;;;;;;5054047;28;20924;-51
2023/07/30 11:00:27;;;;;;;205.13;62.13;;;;;;;;;;5053605;28;20802;-52
2023/07/30 11:02:54;;;;;;;205.47;63.63;;;;;;;;;;5053912;28;20413;-51
2023/07/30 11:05:20;;;;;;;208.77;65.17;;;;;;;;;;5053110;28;20428;-51
2023/07/30 11:07:52;;;;;;;206.83;62.83;;;;;;;;;;5050276;28;20418;-52
2023/07/30 11:10:18;;;;;;;206.33;63.17;;;;;;;;;;5053359;28;20528;-51
2023/07/30 11:12:44;;;;;;;207.50;62.83;;;;;;;;;;5053726;28;20456;-51
2023/07/30 11:15:10;;;;;;;207.87;63.17;;;;;;;;;;5052369;28;20971;-51
2023/07/30 11:17:36;;;;;;;206.65;62.55;;;;;;;;;;5053675;28;20474;-50
2023/07/30 11:20:02;;;;;;;207.67;62.53;;;;;;;;;;5053427;28;20179;-51
2023/07/30 11:22:32;;;;;;;206.97;61.67;;;;;;;;;;5053603;28;20429;-50
2023/07/30 11:24:58;;;;;;;204.38;59.42;;;;;;;;;;5053356;28;20531;-52
2023/07/30 11:27:24;;;;;;;206.10;60.33;;;;;;;;;;5053622;28;20190;-52
2023/07/30 11:29:57;;;;;;;210.40;69.00;;;;;;;;;;5053201;28;20793;-51
2023/07/30 11:32:25;;;;;;;206.40;62.97;;;;;;;;;;5053329;28;20424;-50
2023/07/30 11:34:55;;;;;;;205.50;62.93;;;;;;;;;;5053405;28;20452;-50
2023/07/30 11:37:21;;;;;;;204.98;60.38;;;;;;;;;;5053178;28;20413;-51
2023/07/30 11:39:48;;;;;;;205.97;63.17;;;;;;;;;;5053256;28;20881;-50
2023/07/30 11:42:14;;;;;;;204.83;62.30;;;;;;;;;;5052679;28;20900;-50
2023/07/30 11:44:40;;;;;;;205.10;62.37;;;;;;;;;;5053024;28;20409;-50
2023/07/30 11:47:06;;;;;;;206.20;63.23;;;;;;;;;;5053139;28;20405;-52
2023/07/30 11:49:32;;;;;;;205.03;63.33;;;;;;;;;;5052824;28;20819;-50
2023/07/30 11:52:08;;;;;;;204.57;62.07;;;;;;;;;;5052468;28;20409;-52
2023/07/30 11:54:34;;;;;;;203.17;60.67;;;;;;;;;;5052780;28;20435;-50
2023/07/30 11:57:00;;;;;;;203.93;61.77;;;;;;;;;;5053003;28;20405;-52
2023/07/30 11:59:26;;;;;;;202.50;59.85;;;;;;;;;;5052882;28;20433;-52
2023/07/30 12:01:52;;;;;;;202.37;60.63;;;;;;;;;;5052763;28;20173;-51
2023/07/30 12:04:18;;;;;;;204.07;61.97;;;;;;;;;;5052650;28;20496;-51
2023/07/30 12:06:46;;;;;;;204.10;62.27;;;;;;;;;;5052773;28;20777;-50
2023/07/30 12:09:13;;;;;;;206.20;61.72;;;;;;;;;;5052579;28;20409;-51
2023/07/30 12:12:05;;;;;;;207.20;60.05;;;;;;;;;;5052389;28;20182;-49
2023/07/30 12:14:49;;;;;;;207.50;63.73;;;;;;;;;;5040025;28;20313;-49
2023/07/30 12:17:15;;;;;;;207.07;63.53;;;;;;;;;;5043039;28;20975;-51
2023/07/30 12:19:41;;;;;;;207.57;62.90;;;;;;;;;;5041702;28;20442;-52
2023/07/30 12:22:08;;;;;;;206.90;63.05;;;;;;;;;;5036971;28;20851;-50
2023/07/30 12:24:33;;;;;;;207.00;66.43;;;;;;;;;;5052311;28;20171;-50
2023/07/30 12:27:00;;;;;;;209.87;67.90;;;;;;;;;;5052258;28;20479;-52
2023/07/30 12:29:26;;;;;;;209.07;67.57;;;;;;;;;;5052335;28;20437;-51
2023/07/30 12:31:53;;;;;;;206.60;64.60;;;;;;;;;;5051983;28;20417;-52
2023/07/30 12:34:19;;;;;;;204.20;62.30;;;;;;;;;;5064751;28;20201;-50
2023/07/30 12:36:45;;;;;;;205.20;63.88;;;;;;;;;;5053580;28;20186;-52
2023/07/30 12:39:11;;;;;;;208.45;64.35;;;;;;;;;;5051013;28;20189;-51
2023/07/30 12:41:37;;;;;;;207.30;64.15;;;;;;;;;;5050954;28;20541;-53
2023/07/30 12:44:04;;;;;;;203.07;61.33;;;;;;;;;;5052185;28;20178;-50
2023/07/30 12:46:32;;;;;;;204.52;62.55;;;;;;;;;;5050895;28;20797;-52
2023/07/30 12:49:02;;;;;;;204.15;62.22;;;;;;;;;;5052102;28;20181;-50
2023/07/30 12:51:29;;;;;;;204.65;63.22;;;;;;;;;;5051432;28;20379;-51
2023/07/30 12:53:54;;;;;;;205.50;63.57;;;;;;;;;;5051053;28;20286;-51
2023/07/30 12:56:20;;;;;;;205.83;63.73;;;;;;;;;;5051714;28;20499;-50
2023/07/30 12:58:46;;;;;;;202.97;60.90;;;;;;;;;;5052109;28;20475;-52
2023/07/30 13:01:12;;;;;;;205.70;65.97;;;;;;;;;;5051507;28;20437;-52
2023/07/30 13:03:39;;;;;;;208.20;69.30;;;;;;;;;;5051710;28;20407;-53
2023/07/30 13:06:05;;;;;;;206.43;65.83;;;;;;;;;;5051753;28;20497;-52
2023/07/30 13:08:31;;;;;;;206.95;66.47;;;;;;;;;;5051665;28;21008;-52
2023/07/30 13:10:57;;;;;;;209.90;71.93;;;;;;;;;;5051779;28;20230;-53
2023/07/30 13:13:23;;;;;;;204.13;64.20;;;;;;;;;;5051849;28;20457;-52
2023/07/30 13:15:49;;;;;;;203.35;63.20;;;;;;;;;;5051624;28;20409;-52
2023/07/30 13:18:15;;;;;;;204.73;64.13;;;;;;;;;;5043927;28;20176;-51
2023/07/30 13:20:41;;;;;;;202.23;61.80;;;;;;;;;;5051181;28;20440;-52
2023/07/30 13:23:07;;;;;;;203.80;62.53;;;;;;;;;;5052598;28;20415;-51
2023/07/30 13:25:33;;;;;;;207.60;67.93;;;;;;;;;;5070787;28;20417;-52
2023/07/30 13:27:59;;;;;;;205.50;62.93;;;;;;;;;;5055389;28;20413;-52
2023/07/30 13:30:25;;;;;;;208.03;68.13;;;;;;;;;;5063047;28;20943;-52
2023/07/30 13:32:51;;;;;;;206.47;66.87;;;;;;;;;;5063549;28;20509;-51
2023/07/30 13:35:17;;;;;;;207.07;67.90;;;;;;;;;;5054901;28;20405;-52
2023/07/30 13:37:43;;;;;;;205.13;63.20;;;;;;;;;;5071660;28;20424;-52
2023/07/30 13:40:09;;;;;;;206.13;64.00;;;;;;;;;;5051328;28;20429;-51
2023/07/30 13:42:35;;;;;;;206.47;66.47;;;;;;;;;;5050075;28;20180;-51
2023/07/30 13:45:01;;;;;;;204.70;63.17;;;;;;;;;;5050003;28;20430;-51
2023/07/30 13:47:27;;;;;;;205.13;64.70;;;;;;;;;;5051266;28;20460;-50
2023/07/30 13:49:54;;;;;;;205.40;65.80;;;;;;;;;;5050927;28;20457;-52
2023/07/30 13:52:20;;;;;;;206.70;66.73;;;;;;;;;;5060079;28;20412;-51
2023/07/30 13:54:46;;;;;;;206.27;64.83;;;;;;;;;;5031311;28;20424;-51
2023/07/30 13:57:12;;;;;;;205.40;65.83;;;;;;;;;;5048986;28;20450;-52
2023/07/30 13:59:39;;;;;;;204.73;64.03;;;;;;;;;;5050901;28;20925;-52
2023/07/30 14:02:05;;;;;;;205.43;66.00;;;;;;;;;;5051121;28;20401;-52